Corpus Christi International Airport
KCRP : now visible

Airfield :











YOU CAN JOIN US ON...

 
LOGIN :

Register | Disclaimer

   EN    FR    IT 

 









Legend :    VFR   Marginal VFR   IFR   Intensive IFR   Very Intensive IFR
Visi :
Ceiling :
>= 8 km
>= 3000ft
5 to 8 km
1000 to 3000 ft
1500m to 5 km
500 to 1000 ft
800 to 1500m
200 to 500 ft
< 800m
< 200 ft
Symbols :   Thunderstorms  Fog  Heavy snow  Heavy precipitations  Wind > 20 kt






- Airport Elevation : 44 ft
- IATA code : CRP


KCRP - Corpus Christi International

CURRENT METAR :
  • 031251Z 00000KT 10SM FEW025 FEW120 BKN180 BKN250 25/24 A2996 RMK AO2 SLP144 CB DSNT NE E MOV E TCU DSNT E SE T02500244

EXPIRED METARs :
  • 031151Z 13003KT 10SM FEW025 FEW110 SCT170 BKN250 24/23 A2994 RMK AO2 SLP138 CB DSNT N NE NW MOV NE TCU DSNT E SE 60000 70067 T02390233 10272 20239 55002
  • 031051Z 22004KT 10SM FEW025 FEW120 SCT170 BKN250 24/24 A2994 RMK AO2 SLP136 OCNL LTGIC DSNT N NE CB DSNT N NE MOV NE T02440239

TAF KCRP
Valid from the 03 at 12:00 until the 04 at 12:00 UTC


031139Z 0312/0412 22004KT P6SM VCSH SCT025 BKN100
FM031500 VRB04KT P6SM VCSH BKN025 OVC040
FM031800 29005KT P6SM VCTS BKN035CB OVC100
TEMPO 0320/0324 VRB15G25KT 2SM +TSRA OVC030CB
FM040000 10007KT P6SM BKN035 BKN150
FM040800 VRB03KT P6SM VCSH OVC020
KZHU FIR / North America



MET'MAP, your aeronautical weather chart ! - Copyright ORBIFLY December 2007 - Disclaimer

ORBIFLY MET'MAP TEAM :

Programming & Development : Alexandra Zaïnal
Concept & original design : Baudouin d'Aumeries
Assistance for programming : Marc-Olivier Méhu
Technical & hardware support : Manuel Goepfert

Contact : metmap@orbifly.com




SOURCES & CREDITS :

   NOAA       Earth
Advisory